sensor_id;sensor_type;location;lat;lon;timestamp;temperature;humidity
48686;DHT22;34485;51.536;3.816;2023-08-01T00:01:23;16.20;99.90
48686;DHT22;34485;51.536;3.816;2023-08-01T00:03:49;16.20;99.90
48686;DHT22;34485;51.536;3.816;2023-08-01T00:06:14;16.20;99.90
48686;DHT22;34485;51.536;3.816;2023-08-01T00:08:40;16.20;99.90
48686;DHT22;34485;51.536;3.816;2023-08-01T00:11:06;16.20;99.90
48686;DHT22;34485;51.536;3.816;2023-08-01T00:13:31;16.20;99.90
48686;DHT22;34485;51.536;3.816;2023-08-01T00:15:57;16.20;99.90
48686;DHT22;34485;51.536;3.816;2023-08-01T00:18:22;16.10;99.90
48686;DHT22;34485;51.536;3.816;2023-08-01T00:20:48;16.10;99.90
48686;DHT22;34485;51.536;3.816;2023-08-01T00:23:14;16.10;99.90
48686;DHT22;34485;51.536;3.816;2023-08-01T00:25:39;16.10;99.90
48686;DHT22;34485;51.536;3.816;2023-08-01T00:28:05;16.00;99.90
48686;DHT22;34485;51.536;3.816;2023-08-01T00:30:30;16.10;99.90
48686;DHT22;34485;51.536;3.816;2023-08-01T00:32:56;16.00;99.90
48686;DHT22;34485;51.536;3.816;2023-08-01T00:35:21;16.00;99.90
48686;DHT22;34485;51.536;3.816;2023-08-01T00:37:47;16.00;99.90
48686;DHT22;34485;51.536;3.816;2023-08-01T00:40:12;16.00;99.90
48686;DHT22;34485;51.536;3.816;2023-08-01T00:42:38;16.00;99.90
48686;DHT22;34485;51.536;3.816;2023-08-01T00:45:04;16.00;99.90
48686;DHT22;34485;51.536;3.816;2023-08-01T00:47:30;16.10;99.90
48686;DHT22;34485;51.536;3.816;2023-08-01T00:49:56;16.10;99.90
48686;DHT22;34485;51.536;3.816;2023-08-01T00:52:22;16.00;99.90
48686;DHT22;34485;51.536;3.816;2023-08-01T00:54:47;16.00;99.90
48686;DHT22;34485;51.536;3.816;2023-08-01T00:57:13;16.10;99.90
48686;DHT22;34485;51.536;3.816;2023-08-01T00:59:39;16.10;99.90
48686;DHT22;34485;51.536;3.816;2023-08-01T01:02:05;16.20;99.90
48686;DHT22;34485;51.536;3.816;2023-08-01T01:04:31;16.20;99.90
48686;DHT22;34485;51.536;3.816;2023-08-01T01:09:22;16.30;99.90
48686;DHT22;34485;51.536;3.816;2023-08-01T01:11:47;16.30;99.90
48686;DHT22;34485;51.536;3.816;2023-08-01T01:14:13;16.30;99.90
48686;DHT22;34485;51.536;3.816;2023-08-01T01:16:39;16.40;99.90
48686;DHT22;34485;51.536;3.816;2023-08-01T01:19:08;16.40;99.90
48686;DHT22;34485;51.536;3.816;2023-08-01T01:21:35;16.30;99.90
48686;DHT22;34485;51.536;3.816;2023-08-01T01:24:07;16.30;99.90
48686;DHT22;34485;51.536;3.816;2023-08-01T01:26:35;16.30;99.90
48686;DHT22;34485;51.536;3.816;2023-08-01T01:29:03;16.20;99.90
48686;DHT22;34485;51.536;3.816;2023-08-01T01:31:30;16.20;99.90
48686;DHT22;34485;51.536;3.816;2023-08-01T01:33:56;16.10;99.90
48686;DHT22;34485;51.536;3.816;2023-08-01T01:36:22;16.10;99.90
48686;DHT22;34485;51.536;3.816;2023-08-01T01:38:48;16.10;99.90
48686;DHT22;34485;51.536;3.816;2023-08-01T01:41:13;16.10;99.90
48686;DHT22;34485;51.536;3.816;2023-08-01T01:43:39;16.10;99.90
48686;DHT22;34485;51.536;3.816;2023-08-01T01:46:04;16.10;99.90
48686;DHT22;34485;51.536;3.816;2023-08-01T01:48:30;16.10;99.90
48686;DHT22;34485;51.536;3.816;2023-08-01T01:50:56;16.10;99.90
48686;DHT22;34485;51.536;3.816;2023-08-01T01:53:21;16.10;99.90
48686;DHT22;34485;51.536;3.816;2023-08-01T01:55:47;16.20;99.90
48686;DHT22;34485;51.536;3.816;2023-08-01T01:58:12;16.20;99.90
48686;DHT22;34485;51.536;3.816;2023-08-01T02:00:38;16.10;99.90
48686;DHT22;34485;51.536;3.816;2023-08-01T02:03:03;16.10;99.90
48686;DHT22;34485;51.536;3.816;2023-08-01T02:05:29;16.10;99.90
48686;DHT22;34485;51.536;3.816;2023-08-01T02:07:55;16.10;99.90
48686;DHT22;34485;51.536;3.816;2023-08-01T02:10:21;16.10;99.90
48686;DHT22;34485;51.536;3.816;2023-08-01T02:12:46;16.10;99.90
48686;DHT22;34485;51.536;3.816;2023-08-01T02:15:12;16.10;99.90
48686;DHT22;34485;51.536;3.816;2023-08-01T02:17:38;16.10;99.90
48686;DHT22;34485;51.536;3.816;2023-08-01T02:20:04;16.10;99.90
48686;DHT22;34485;51.536;3.816;2023-08-01T02:22:30;16.10;99.90
48686;DHT22;34485;51.536;3.816;2023-08-01T02:24:56;16.10;99.90
48686;DHT22;34485;51.536;3.816;2023-08-01T02:27:21;16.10;99.90
48686;DHT22;34485;51.536;3.816;2023-08-01T02:29:47;16.10;99.90
48686;DHT22;34485;51.536;3.816;2023-08-01T02:32:12;16.10;99.90
48686;DHT22;34485;51.536;3.816;2023-08-01T02:34:38;16.20;99.90
48686;DHT22;34485;51.536;3.816;2023-08-01T02:37:04;16.20;99.90
48686;DHT22;34485;51.536;3.816;2023-08-01T02:39:29;16.30;99.90
48686;DHT22;34485;51.536;3.816;2023-08-01T02:41:55;16.30;99.90
48686;DHT22;34485;51.536;3.816;2023-08-01T02:44:21;16.30;99.90
48686;DHT22;34485;51.536;3.816;2023-08-01T02:46:46;16.40;99.90
48686;DHT22;34485;51.536;3.816;2023-08-01T02:49:12;16.40;99.90
48686;DHT22;34485;51.536;3.816;2023-08-01T02:51:37;16.40;99.90
48686;DHT22;34485;51.536;3.816;2023-08-01T02:54:03;16.40;99.90
48686;DHT22;34485;51.536;3.816;2023-08-01T02:56:28;16.40;99.90
48686;DHT22;34485;51.536;3.816;2023-08-01T02:58:54;16.40;99.90
48686;DHT22;34485;51.536;3.816;2023-08-01T03:01:21;16.40;99.90
48686;DHT22;34485;51.536;3.816;2023-08-01T03:03:46;16.40;99.90
48686;DHT22;34485;51.536;3.816;2023-08-01T03:06:12;16.30;99.90
48686;DHT22;34485;51.536;3.816;2023-08-01T03:08:39;16.30;99.90
48686;DHT22;34485;51.536;3.816;2023-08-01T03:11:05;16.30;99.90
48686;DHT22;34485;51.536;3.816;2023-08-01T03:13:31;16.20;99.90
48686;DHT22;34485;51.536;3.816;2023-08-01T03:15:56;16.20;99.90
48686;DHT22;34485;51.536;3.816;2023-08-01T03:18:22;16.20;99.90
48686;DHT22;34485;51.536;3.816;2023-08-01T03:20:48;16.10;99.90
48686;DHT22;34485;51.536;3.816;2023-08-01T03:23:13;16.10;99.90
48686;DHT22;34485;51.536;3.816;2023-08-01T03:25:39;16.10;99.90
48686;DHT22;34485;51.536;3.816;2023-08-01T03:28:04;16.20;99.90
48686;DHT22;34485;51.536;3.816;2023-08-01T03:30:32;16.20;99.90
48686;DHT22;34485;51.536;3.816;2023-08-01T03:32:57;16.20;99.90
48686;DHT22;34485;51.536;3.816;2023-08-01T03:35:23;16.20;99.90
48686;DHT22;34485;51.536;3.816;2023-08-01T03:37:49;16.20;99.90
48686;DHT22;34485;51.536;3.816;2023-08-01T03:40:15;16.30;99.90
48686;DHT22;34485;51.536;3.816;2023-08-01T03:42:40;16.30;99.90
48686;DHT22;34485;51.536;3.816;2023-08-01T03:45:07;16.30;99.90
48686;DHT22;34485;51.536;3.816;2023-08-01T03:47:32;16.30;99.90
48686;DHT22;34485;51.536;3.816;2023-08-01T03:49:58;16.40;99.90
48686;DHT22;34485;51.536;3.816;2023-08-01T03:52:24;16.40;99.90
48686;DHT22;34485;51.536;3.816;2023-08-01T03:54:52;16.40;99.90
48686;DHT22;34485;51.536;3.816;2023-08-01T03:57:18;16.40;99.90
48686;DHT22;34485;51.536;3.816;2023-08-01T03:59:44;16.40;99.90
48686;DHT22;34485;51.536;3.816;2023-08-01T04:02:09;16.40;99.90
48686;DHT22;34485;51.536;3.816;2023-08-01T04:04:35;16.40;99.90
48686;DHT22;34485;51.536;3.816;2023-08-01T04:07:00;16.40;99.90
48686;DHT22;34485;51.536;3.816;2023-08-01T04:09:26;16.40;99.90
48686;DHT22;34485;51.536;3.816;2023-08-01T04:11:51;16.40;99.90
48686;DHT22;34485;51.536;3.816;2023-08-01T04:14:17;16.40;99.90
48686;DHT22;34485;51.536;3.816;2023-08-01T04:16:42;16.50;99.90
48686;DHT22;34485;51.536;3.816;2023-08-01T04:19:08;16.50;99.90
48686;DHT22;34485;51.536;3.816;2023-08-01T04:21:35;16.50;99.90
48686;DHT22;34485;51.536;3.816;2023-08-01T04:24:00;16.50;99.90
48686;DHT22;34485;51.536;3.816;2023-08-01T04:26:26;16.50;99.90
48686;DHT22;34485;51.536;3.816;2023-08-01T04:28:51;16.50;99.90
48686;DHT22;34485;51.536;3.816;2023-08-01T04:31:17;16.50;99.90
48686;DHT22;34485;51.536;3.816;2023-08-01T04:33:43;16.50;99.90
48686;DHT22;34485;51.536;3.816;2023-08-01T04:36:09;16.50;99.90
48686;DHT22;34485;51.536;3.816;2023-08-01T04:38:34;16.50;99.90
48686;DHT22;34485;51.536;3.816;2023-08-01T04:41:00;16.50;99.90
48686;DHT22;34485;51.536;3.816;2023-08-01T04:43:25;16.50;99.90
48686;DHT22;34485;51.536;3.816;2023-08-01T04:45:51;16.50;99.90
48686;DHT22;34485;51.536;3.816;2023-08-01T04:48:16;16.50;99.90
48686;DHT22;34485;51.536;3.816;2023-08-01T04:50:42;16.50;99.90
48686;DHT22;34485;51.536;3.816;2023-08-01T04:53:07;16.40;99.90
48686;DHT22;34485;51.536;3.816;2023-08-01T04:55:33;16.40;99.90
48686;DHT22;34485;51.536;3.816;2023-08-01T04:57:59;16.40;99.90
48686;DHT22;34485;51.536;3.816;2023-08-01T05:00:24;16.50;99.90
48686;DHT22;34485;51.536;3.816;2023-08-01T05:02:50;16.60;99.90
48686;DHT22;34485;51.536;3.816;2023-08-01T05:05:16;16.60;99.90
48686;DHT22;34485;51.536;3.816;2023-08-01T05:07:42;16.70;99.90
48686;DHT22;34485;51.536;3.816;2023-08-01T05:10:08;16.70;99.90
48686;DHT22;34485;51.536;3.816;2023-08-01T05:12:33;16.70;99.90
48686;DHT22;34485;51.536;3.816;2023-08-01T05:14:59;16.70;99.90
48686;DHT22;34485;51.536;3.816;2023-08-01T05:17:24;16.80;99.90
48686;DHT22;34485;51.536;3.816;2023-08-01T05:19:50;16.90;99.90
48686;DHT22;34485;51.536;3.816;2023-08-01T05:22:15;17.00;99.90
48686;DHT22;34485;51.536;3.816;2023-08-01T05:24:41;17.20;99.90
48686;DHT22;34485;51.536;3.816;2023-08-01T05:27:07;17.20;99.90
48686;DHT22;34485;51.536;3.816;2023-08-01T05:29:32;17.30;99.90
48686;DHT22;34485;51.536;3.816;2023-08-01T05:31:58;17.40;99.90
48686;DHT22;34485;51.536;3.816;2023-08-01T05:34:24;17.40;99.90
48686;DHT22;34485;51.536;3.816;2023-08-01T05:36:49;17.40;99.90
48686;DHT22;34485;51.536;3.816;2023-08-01T05:39:16;17.40;99.90
48686;DHT22;34485;51.536;3.816;2023-08-01T05:41:42;17.40;99.90
48686;DHT22;34485;51.536;3.816;2023-08-01T05:44:08;17.40;99.90
48686;DHT22;34485;51.536;3.816;2023-08-01T05:46:33;17.30;99.90
48686;DHT22;34485;51.536;3.816;2023-08-01T05:48:59;17.30;99.90
48686;DHT22;34485;51.536;3.816;2023-08-01T05:51:25;17.30;99.90
48686;DHT22;34485;51.536;3.816;2023-08-01T05:53:50;17.30;99.90
48686;DHT22;34485;51.536;3.816;2023-08-01T05:56:16;17.30;99.90
48686;DHT22;34485;51.536;3.816;2023-08-01T05:58:42;17.30;99.90
48686;DHT22;34485;51.536;3.816;2023-08-01T06:01:10;17.40;99.90
48686;DHT22;34485;51.536;3.816;2023-08-01T06:03:37;17.40;99.90
48686;DHT22;34485;51.536;3.816;2023-08-01T06:06:03;17.40;99.90
48686;DHT22;34485;51.536;3.816;2023-08-01T06:08:29;17.50;99.90
48686;DHT22;34485;51.536;3.816;2023-08-01T06:10:55;17.50;99.90
48686;DHT22;34485;51.536;3.816;2023-08-01T06:13:20;17.60;99.90
48686;DHT22;34485;51.536;3.816;2023-08-01T06:15:46;17.60;99.90
48686;DHT22;34485;51.536;3.816;2023-08-01T06:18:13;17.70;99.90
48686;DHT22;34485;51.536;3.816;2023-08-01T06:20:38;17.70;99.90
48686;DHT22;34485;51.536;3.816;2023-08-01T06:23:04;17.90;99.90
48686;DHT22;34485;51.536;3.816;2023-08-01T06:25:30;18.10;99.90
48686;DHT22;34485;51.536;3.816;2023-08-01T06:27:56;18.30;99.90
48686;DHT22;34485;51.536;3.816;2023-08-01T06:30:21;18.40;99.90
48686;DHT22;34485;51.536;3.816;2023-08-01T06:32:47;18.40;99.90
48686;DHT22;34485;51.536;3.816;2023-08-01T06:35:12;18.50;99.90
48686;DHT22;34485;51.536;3.816;2023-08-01T06:37:38;18.70;99.90
48686;DHT22;34485;51.536;3.816;2023-08-01T06:40:04;18.80;99.90
48686;DHT22;34485;51.536;3.816;2023-08-01T06:42:30;18.80;99.90
48686;DHT22;34485;51.536;3.816;2023-08-01T06:44:55;18.80;99.90
48686;DHT22;34485;51.536;3.816;2023-08-01T06:47:21;18.70;99.90
48686;DHT22;34485;51.536;3.816;2023-08-01T06:49:46;18.60;99.90
48686;DHT22;34485;51.536;3.816;2023-08-01T06:52:12;18.60;99.90
48686;DHT22;34485;51.536;3.816;2023-08-01T06:54:38;18.60;99.90
48686;DHT22;34485;51.536;3.816;2023-08-01T06:57:04;18.60;99.90
48686;DHT22;34485;51.536;3.816;2023-08-01T06:59:30;18.60;99.90
48686;DHT22;34485;51.536;3.816;2023-08-01T07:01:55;18.70;99.90
48686;DHT22;34485;51.536;3.816;2023-08-01T07:04:21;18.80;99.90
48686;DHT22;34485;51.536;3.816;2023-08-01T07:06:47;18.80;99.90
48686;DHT22;34485;51.536;3.816;2023-08-01T07:09:12;18.90;99.90
48686;DHT22;34485;51.536;3.816;2023-08-01T07:11:38;18.90;99.90
48686;DHT22;34485;51.536;3.816;2023-08-01T07:14:03;19.00;99.90
48686;DHT22;34485;51.536;3.816;2023-08-01T07:16:29;19.10;99.90
48686;DHT22;34485;51.536;3.816;2023-08-01T07:18:55;19.30;99.90
48686;DHT22;34485;51.536;3.816;2023-08-01T07:21:21;19.50;99.60
48686;DHT22;34485;51.536;3.816;2023-08-01T07:23:47;19.60;99.80
48686;DHT22;34485;51.536;3.816;2023-08-01T07:26:16;19.80;98.80
48686;DHT22;34485;51.536;3.816;2023-08-01T07:28:42;20.10;98.40
48686;DHT22;34485;51.536;3.816;2023-08-01T07:31:08;20.20;98.10
48686;DHT22;34485;51.536;3.816;2023-08-01T07:33:34;20.10;97.10
48686;DHT22;34485;51.536;3.816;2023-08-01T07:36:00;19.80;97.10
48686;DHT22;34485;51.536;3.816;2023-08-01T07:38:26;19.90;97.90
48686;DHT22;34485;51.536;3.816;2023-08-01T07:40:55;20.30;97.00
48686;DHT22;34485;51.536;3.816;2023-08-01T07:43:21;20.80;96.90
48686;DHT22;34485;51.536;3.816;2023-08-01T07:45:47;21.10;96.00
48686;DHT22;34485;51.536;3.816;2023-08-01T07:48:15;21.10;94.60
48686;DHT22;34485;51.536;3.816;2023-08-01T07:50:41;21.10;94.50
48686;DHT22;34485;51.536;3.816;2023-08-01T07:53:06;20.90;93.80
48686;DHT22;34485;51.536;3.816;2023-08-01T07:55:35;20.70;94.50
48686;DHT22;34485;51.536;3.816;2023-08-01T07:58:01;20.80;95.10
48686;DHT22;34485;51.536;3.816;2023-08-01T08:00:26;21.10;94.30
48686;DHT22;34485;51.536;3.816;2023-08-01T08:02:53;22.00;93.30
48686;DHT22;34485;51.536;3.816;2023-08-01T08:05:19;23.10;90.50
48686;DHT22;34485;51.536;3.816;2023-08-01T08:07:45;23.80;87.80
48686;DHT22;34485;51.536;3.816;2023-08-01T08:10:10;24.90;84.30
48686;DHT22;34485;51.536;3.816;2023-08-01T08:12:36;25.90;79.90
48686;DHT22;34485;51.536;3.816;2023-08-01T08:15:02;26.70;75.40
48686;DHT22;34485;51.536;3.816;2023-08-01T08:17:27;27.60;71.10
48686;DHT22;34485;51.536;3.816;2023-08-01T08:19:53;27.90;65.10
48686;DHT22;34485;51.536;3.816;2023-08-01T08:22:19;27.80;64.30
48686;DHT22;34485;51.536;3.816;2023-08-01T08:24:44;28.10;66.20
48686;DHT22;34485;51.536;3.816;2023-08-01T08:27:10;28.60;65.50
48686;DHT22;34485;51.536;3.816;2023-08-01T08:29:37;28.10;64.30
48686;DHT22;34485;51.536;3.816;2023-08-01T08:32:03;28.10;65.20
48686;DHT22;34485;51.536;3.816;2023-08-01T08:34:29;28.00;61.90
48686;DHT22;34485;51.536;3.816;2023-08-01T08:36:54;27.70;68.50
48686;DHT22;34485;51.536;3.816;2023-08-01T08:39:20;28.40;64.90
48686;DHT22;34485;51.536;3.816;2023-08-01T08:41:47;28.50;60.70
48686;DHT22;34485;51.536;3.816;2023-08-01T08:44:15;28.70;59.30
48686;DHT22;34485;51.536;3.816;2023-08-01T08:46:43;29.00;60.30
48686;DHT22;34485;51.536;3.816;2023-08-01T08:49:09;28.90;59.30
48686;DHT22;34485;51.536;3.816;2023-08-01T08:51:36;29.00;59.90
48686;DHT22;34485;51.536;3.816;2023-08-01T08:54:03;29.00;57.30
48686;DHT22;34485;51.536;3.816;2023-08-01T08:56:30;28.30;59.80
48686;DHT22;34485;51.536;3.816;2023-08-01T08:58:57;28.20;60.50
48686;DHT22;34485;51.536;3.816;2023-08-01T09:01:22;28.50;60.40
48686;DHT22;34485;51.536;3.816;2023-08-01T09:03:48;28.50;58.70
48686;DHT22;34485;51.536;3.816;2023-08-01T09:06:19;28.00;58.80
48686;DHT22;34485;51.536;3.816;2023-08-01T09:09:00;28.20;62.00
48686;DHT22;34485;51.536;3.816;2023-08-01T09:11:27;28.60;62.00
48686;DHT22;34485;51.536;3.816;2023-08-01T09:13:52;28.30;61.10
48686;DHT22;34485;51.536;3.816;2023-08-01T09:16:18;28.70;60.10
48686;DHT22;34485;51.536;3.816;2023-08-01T09:18:51;28.80;58.30
48686;DHT22;34485;51.536;3.816;2023-08-01T09:21:21;28.50;58.70
48686;DHT22;34485;51.536;3.816;2023-08-01T09:23:47;28.20;62.30
48686;DHT22;34485;51.536;3.816;2023-08-01T09:26:17;28.00;61.50
48686;DHT22;34485;51.536;3.816;2023-08-01T09:28:43;27.90;63.50
48686;DHT22;34485;51.536;3.816;2023-08-01T09:31:10;28.00;65.30
48686;DHT22;34485;51.536;3.816;2023-08-01T09:33:40;28.60;60.40
48686;DHT22;34485;51.536;3.816;2023-08-01T09:36:07;29.20;58.10
48686;DHT22;34485;51.536;3.816;2023-08-01T09:38:37;29.70;56.30
48686;DHT22;34485;51.536;3.816;2023-08-01T09:41:03;30.00;55.20
48686;DHT22;34485;51.536;3.816;2023-08-01T09:43:36;30.00;54.60
48686;DHT22;34485;51.536;3.816;2023-08-01T09:46:03;29.90;53.40
48686;DHT22;34485;51.536;3.816;2023-08-01T09:48:31;29.80;53.40
48686;DHT22;34485;51.536;3.816;2023-08-01T09:51:09;28.70;55.00
48686;DHT22;34485;51.536;3.816;2023-08-01T09:53:55;27.70;59.00
48686;DHT22;34485;51.536;3.816;2023-08-01T09:56:23;27.10;61.90
48686;DHT22;34485;51.536;3.816;2023-08-01T09:58:50;27.20;63.00
48686;DHT22;34485;51.536;3.816;2023-08-01T10:01:19;27.10;62.40
48686;DHT22;34485;51.536;3.816;2023-08-01T10:03:47;27.90;63.00
48686;DHT22;34485;51.536;3.816;2023-08-01T10:06:23;28.80;60.10
48686;DHT22;34485;51.536;3.816;2023-08-01T10:08:51;29.60;56.90
48686;DHT22;34485;51.536;3.816;2023-08-01T10:11:19;29.20;53.90
48686;DHT22;34485;51.536;3.816;2023-08-01T10:13:45;28.50;56.50
48686;DHT22;34485;51.536;3.816;2023-08-01T10:16:12;27.60;60.30
48686;DHT22;34485;51.536;3.816;2023-08-01T10:18:38;27.10;60.80
48686;DHT22;34485;51.536;3.816;2023-08-01T10:21:06;26.50;64.20
48686;DHT22;34485;51.536;3.816;2023-08-01T10:23:34;25.70;67.20
48686;DHT22;34485;51.536;3.816;2023-08-01T10:26:03;25.50;71.20
48686;DHT22;34485;51.536;3.816;2023-08-01T10:28:33;25.80;67.70
48686;DHT22;34485;51.536;3.816;2023-08-01T10:31:16;25.80;69.40
48686;DHT22;34485;51.536;3.816;2023-08-01T10:33:49;26.80;65.40
48686;DHT22;34485;51.536;3.816;2023-08-01T10:36:19;27.20;61.60
48686;DHT22;34485;51.536;3.816;2023-08-01T10:38:47;26.90;61.40
48686;DHT22;34485;51.536;3.816;2023-08-01T10:41:32;26.20;65.40
48686;DHT22;34485;51.536;3.816;2023-08-01T10:44:22;25.90;67.40
48686;DHT22;34485;51.536;3.816;2023-08-01T10:49:18;24.90;71.30
48686;DHT22;34485;51.536;3.816;2023-08-01T10:51:45;25.00;71.80
48686;DHT22;34485;51.536;3.816;2023-08-01T10:54:21;24.70;72.30
48686;DHT22;34485;51.536;3.816;2023-08-01T10:56:47;24.20;73.30
48686;DHT22;34485;51.536;3.816;2023-08-01T10:59:14;24.80;73.20
48686;DHT22;34485;51.536;3.816;2023-08-01T11:01:59;26.00;69.40
48686;DHT22;34485;51.536;3.816;2023-08-01T11:04:25;27.10;63.10
48686;DHT22;34485;51.536;3.816;2023-08-01T11:06:53;27.00;62.00
48686;DHT22;34485;51.536;3.816;2023-08-01T11:09:23;26.40;64.10
48686;DHT22;34485;51.536;3.816;2023-08-01T11:11:54;26.10;70.20
48686;DHT22;34485;51.536;3.816;2023-08-01T11:14:25;26.60;71.20
48686;DHT22;34485;51.536;3.816;2023-08-01T11:16:53;27.30;68.30
48686;DHT22;34485;51.536;3.816;2023-08-01T11:19:25;27.80;63.00
48686;DHT22;34485;51.536;3.816;2023-08-01T11:21:51;28.10;60.00
48686;DHT22;34485;51.536;3.816;2023-08-01T11:24:18;28.10;60.50
48686;DHT22;34485;51.536;3.816;2023-08-01T11:26:46;28.40;59.90
48686;DHT22;34485;51.536;3.816;2023-08-01T11:29:12;28.50;59.00
48686;DHT22;34485;51.536;3.816;2023-08-01T11:31:39;28.80;58.10
48686;DHT22;34485;51.536;3.816;2023-08-01T11:34:05;29.10;56.60
48686;DHT22;34485;51.536;3.816;2023-08-01T11:36:30;29.20;54.70
48686;DHT22;34485;51.536;3.816;2023-08-01T11:38:58;29.40;53.40
48686;DHT22;34485;51.536;3.816;2023-08-01T11:41:27;29.50;54.70
48686;DHT22;34485;51.536;3.816;2023-08-01T11:43:53;29.20;55.20
48686;DHT22;34485;51.536;3.816;2023-08-01T11:46:22;28.80;56.60
48686;DHT22;34485;51.536;3.816;2023-08-01T11:48:48;27.90;60.80
48686;DHT22;34485;51.536;3.816;2023-08-01T11:51:17;27.70;63.80
48686;DHT22;34485;51.536;3.816;2023-08-01T11:53:43;27.60;61.10
48686;DHT22;34485;51.536;3.816;2023-08-01T11:56:19;26.90;62.20
48686;DHT22;34485;51.536;3.816;2023-08-01T11:58:44;26.90;64.10
48686;DHT22;34485;51.536;3.816;2023-08-01T12:01:14;27.00;64.20
48686;DHT22;34485;51.536;3.816;2023-08-01T12:03:44;26.50;66.10
48686;DHT22;34485;51.536;3.816;2023-08-01T12:06:10;25.90;65.30
48686;DHT22;34485;51.536;3.816;2023-08-01T12:08:38;25.20;70.60
48686;DHT22;34485;51.536;3.816;2023-08-01T12:11:03;24.80;71.30
48686;DHT22;34485;51.536;3.816;2023-08-01T12:13:29;24.50;70.90
48686;DHT22;34485;51.536;3.816;2023-08-01T12:15:56;24.50;75.30
48686;DHT22;34485;51.536;3.816;2023-08-01T12:18:27;24.50;72.30
48686;DHT22;34485;51.536;3.816;2023-08-01T12:20:54;24.50;73.60
48686;DHT22;34485;51.536;3.816;2023-08-01T12:23:20;24.60;71.80
48686;DHT22;34485;51.536;3.816;2023-08-01T12:25:47;24.80;73.60
48686;DHT22;34485;51.536;3.816;2023-08-01T12:28:15;24.80;74.10
48686;DHT22;34485;51.536;3.816;2023-08-01T12:30:42;24.70;76.00
48686;DHT22;34485;51.536;3.816;2023-08-01T12:33:08;24.60;73.40
48686;DHT22;34485;51.536;3.816;2023-08-01T12:35:34;24.40;74.40
48686;DHT22;34485;51.536;3.816;2023-08-01T12:37:59;24.30;76.70
48686;DHT22;34485;51.536;3.816;2023-08-01T12:40:25;24.10;73.50
48686;DHT22;34485;51.536;3.816;2023-08-01T12:42:50;24.20;74.00
48686;DHT22;34485;51.536;3.816;2023-08-01T12:45:16;24.10;71.50
48686;DHT22;34485;51.536;3.816;2023-08-01T12:47:42;24.00;72.70
48686;DHT22;34485;51.536;3.816;2023-08-01T12:54:59;23.50;74.40
48686;DHT22;34485;51.536;3.816;2023-08-01T12:57:25;23.50;77.70
48686;DHT22;34485;51.536;3.816;2023-08-01T12:59:51;23.50;75.00
48686;DHT22;34485;51.536;3.816;2023-08-01T13:02:16;23.50;74.80
48686;DHT22;34485;51.536;3.816;2023-08-01T13:04:42;23.50;75.20
48686;DHT22;34485;51.536;3.816;2023-08-01T13:07:08;23.60;74.00
48686;DHT22;34485;51.536;3.816;2023-08-01T13:09:33;23.60;76.50
48686;DHT22;34485;51.536;3.816;2023-08-01T13:11:59;23.70;77.10
48686;DHT22;34485;51.536;3.816;2023-08-01T13:14:25;23.70;74.50
48686;DHT22;34485;51.536;3.816;2023-08-01T13:16:51;23.70;73.10
48686;DHT22;34485;51.536;3.816;2023-08-01T13:19:18;23.50;73.10
48686;DHT22;34485;51.536;3.816;2023-08-01T13:21:43;23.40;74.40
48686;DHT22;34485;51.536;3.816;2023-08-01T13:24:09;23.10;76.30
48686;DHT22;34485;51.536;3.816;2023-08-01T13:26:35;22.90;79.10
48686;DHT22;34485;51.536;3.816;2023-08-01T13:29:01;22.80;77.70
48686;DHT22;34485;51.536;3.816;2023-08-01T13:31:27;22.90;79.50
48686;DHT22;34485;51.536;3.816;2023-08-01T13:33:54;23.00;80.40
48686;DHT22;34485;51.536;3.816;2023-08-01T13:36:20;23.10;99.90
48686;DHT22;34485;51.536;3.816;2023-08-01T13:38:45;23.10;76.60
48686;DHT22;34485;51.536;3.816;2023-08-01T13:41:11;23.10;77.60
48686;DHT22;34485;51.536;3.816;2023-08-01T13:43:37;23.00;79.10
48686;DHT22;34485;51.536;3.816;2023-08-01T13:48:42;22.90;99.90
48686;DHT22;34485;51.536;3.816;2023-08-01T13:51:08;23.00;81.90
48686;DHT22;34485;51.536;3.816;2023-08-01T13:53:34;23.20;80.90
48686;DHT22;34485;51.536;3.816;2023-08-01T13:56:04;23.20;79.00
48686;DHT22;34485;51.536;3.816;2023-08-01T13:58:29;23.10;80.70
48686;DHT22;34485;51.536;3.816;2023-08-01T14:00:55;23.20;80.00
48686;DHT22;34485;51.536;3.816;2023-08-01T14:03:26;23.20;78.70
48686;DHT22;34485;51.536;3.816;2023-08-01T14:05:51;23.20;79.30
48686;DHT22;34485;51.536;3.816;2023-08-01T14:08:17;23.20;80.40
48686;DHT22;34485;51.536;3.816;2023-08-01T14:10:43;23.20;77.80
48686;DHT22;34485;51.536;3.816;2023-08-01T14:13:08;23.20;79.80
48686;DHT22;34485;51.536;3.816;2023-08-01T14:15:34;23.20;76.50
48686;DHT22;34485;51.536;3.816;2023-08-01T14:17:59;23.00;75.30
48686;DHT22;34485;51.536;3.816;2023-08-01T14:20:25;23.00;78.40
48686;DHT22;34485;51.536;3.816;2023-08-01T14:22:50;22.90;76.30
48686;DHT22;34485;51.536;3.816;2023-08-01T14:25:16;23.00;76.80
48686;DHT22;34485;51.536;3.816;2023-08-01T14:27:42;23.00;78.10
48686;DHT22;34485;51.536;3.816;2023-08-01T14:30:07;22.90;77.40
48686;DHT22;34485;51.536;3.816;2023-08-01T14:32:36;22.90;77.60
48686;DHT22;34485;51.536;3.816;2023-08-01T14:35:02;22.90;79.20
48686;DHT22;34485;51.536;3.816;2023-08-01T14:37:28;23.10;79.60
48686;DHT22;34485;51.536;3.816;2023-08-01T14:39:54;23.20;74.60
48686;DHT22;34485;51.536;3.816;2023-08-01T14:42:22;23.10;73.60
48686;DHT22;34485;51.536;3.816;2023-08-01T14:44:53;23.10;78.10
48686;DHT22;34485;51.536;3.816;2023-08-01T14:47:20;23.20;77.90
48686;DHT22;34485;51.536;3.816;2023-08-01T14:49:45;23.20;74.10
48686;DHT22;34485;51.536;3.816;2023-08-01T14:52:11;23.40;76.00
48686;DHT22;34485;51.536;3.816;2023-08-01T14:54:37;23.30;73.90
48686;DHT22;34485;51.536;3.816;2023-08-01T14:57:04;23.30;74.60
48686;DHT22;34485;51.536;3.816;2023-08-01T14:59:30;23.30;75.40
48686;DHT22;34485;51.536;3.816;2023-08-01T15:01:56;23.20;76.60
48686;DHT22;34485;51.536;3.816;2023-08-01T15:04:21;23.10;74.90
48686;DHT22;34485;51.536;3.816;2023-08-01T15:06:47;23.10;74.50
48686;DHT22;34485;51.536;3.816;2023-08-01T15:09:12;23.00;75.30
48686;DHT22;34485;51.536;3.816;2023-08-01T15:11:38;23.00;76.40
48686;DHT22;34485;51.536;3.816;2023-08-01T15:14:04;23.00;76.60
48686;DHT22;34485;51.536;3.816;2023-08-01T15:16:29;23.00;77.00
48686;DHT22;34485;51.536;3.816;2023-08-01T15:18:55;23.00;77.60
48686;DHT22;34485;51.536;3.816;2023-08-01T15:21:20;22.90;77.30
48686;DHT22;34485;51.536;3.816;2023-08-01T15:23:46;22.90;80.10
48686;DHT22;34485;51.536;3.816;2023-08-01T15:26:12;22.90;79.30
48686;DHT22;34485;51.536;3.816;2023-08-01T15:28:37;22.90;81.90
48686;DHT22;34485;51.536;3.816;2023-08-01T15:31:07;22.70;80.60
48686;DHT22;34485;51.536;3.816;2023-08-01T15:33:35;22.60;81.00
48686;DHT22;34485;51.536;3.816;2023-08-01T15:36:02;22.60;82.10
48686;DHT22;34485;51.536;3.816;2023-08-01T15:38:30;22.50;83.60